Time;durP1;ratioP1;P1;durP2;ratioP2;P2;SDS_P1;SDS_P2;PMS_P1;PMS_P2;Temp;Humidity;BMP_temperature;BMP_pressure;BME280_temperature;BME280_humidity;BME280_pressure;Samples;Min_cycle;Max_cycle;Signal;HPM_P1;HPM_P2
2024/02/08 00:00:54;;;;;;;0.00;0.00;;;;;;;-145.06;100.00;54566.81;10403656;28;20021;-72
2024/02/08 00:05:54;;;;;;;0.00;0.00;;;;;;;-145.06;100.00;54530.34;10402428;28;20359;-72
2024/02/08 00:10:55;;;;;;;0.00;0.00;;;;;;;-145.06;100.00;54554.66;10401688;28;20116;-72
2024/02/08 00:15:55;;;;;;;0.10;0.10;;;;;;;-145.06;100.00;54544.53;10403714;28;20471;-73
2024/02/08 00:20:55;;;;;;;0.00;0.00;;;;;;;-145.06;100.00;54578.97;10403636;28;20264;-72
2024/02/08 00:25:56;;;;;;;0.05;0.05;;;;;;;-145.06;100.00;54570.88;10406437;28;20022;-72
2024/02/08 00:30:56;;;;;;;0.10;0.10;;;;;;;-145.06;100.00;54554.66;10410457;28;20075;-72
2024/02/08 00:35:57;;;;;;;0.03;0.03;;;;;;;-145.06;100.00;54528.34;10410157;28;20032;-72
2024/02/08 00:40:57;;;;;;;0.00;0.00;;;;;;;-145.06;100.00;54542.50;10409658;28;20018;-72
2024/02/08 00:45:57;;;;;;;0.00;0.00;;;;;;;-145.06;100.00;54558.72;10408452;28;20025;-73
2024/02/08 00:50:57;;;;;;;0.00;0.00;;;;;;;-145.06;100.00;54552.66;10408119;28;20399;-73
2024/02/08 00:55:58;;;;;;;0.08;0.08;;;;;;;-145.06;100.00;54566.81;10409607;28;20313;-73
2024/02/08 01:00:59;;;;;;;0.00;0.00;;;;;;;-145.06;100.00;54566.81;10407606;28;20471;-73
2024/02/08 01:05:59;;;;;;;0.10;0.10;;;;;;;-145.06;100.00;54530.34;10409180;28;20029;-73
2024/02/08 01:11:00;;;;;;;0.00;0.00;;;;;;;-145.06;100.00;54552.66;10408821;28;20459;-73
2024/02/08 01:16:00;;;;;;;0.00;0.00;;;;;;;-145.06;100.00;54583.03;10409180;28;20430;-73
2024/02/08 01:21:00;;;;;;;0.00;0.00;;;;;;;-145.06;100.00;54550.63;10408497;28;20025;-72
2024/02/08 01:26:04;;;;;;;0.00;0.00;;;;;;;-145.06;100.00;54546.56;10408786;28;20276;-73
2024/02/08 01:31:04;;;;;;;0.10;0.10;;;;;;;-145.06;100.00;54532.38;10407139;28;20074;-73
2024/02/08 01:36:05;;;;;;;0.08;0.08;;;;;;;-145.06;100.00;54550.63;10407273;28;20052;-73
2024/02/08 01:41:06;;;;;;;0.00;0.00;;;;;;;-145.06;100.00;54558.72;10408263;28;20056;-73
2024/02/08 01:46:09;;;;;;;0.00;0.00;;;;;;;-145.06;100.00;54578.97;10407837;28;20040;-73
2024/02/08 01:51:12;;;;;;;0.00;0.00;;;;;;;-145.06;100.00;54574.91;10407199;28;20096;-73
2024/02/08 01:56:13;;;;;;;0.00;0.00;;;;;;;-145.06;100.00;54572.91;10405455;28;20022;-72
2024/02/08 02:01:14;;;;;;;0.00;0.00;;;;;;;-145.06;100.00;54564.78;10407177;28;20052;-73
2024/02/08 02:06:14;;;;;;;0.00;0.00;;;;;;;-145.06;100.00;54564.78;10407217;28;20517;-73
2024/02/08 02:11:29;;;;;;;0.05;0.05;;;;;;;-145.06;100.00;54566.81;10418869;28;20039;-72
2024/02/08 02:16:29;;;;;;;0.08;0.08;;;;;;;-145.06;100.00;54591.13;10407430;28;20064;-72
2024/02/08 02:21:30;;;;;;;0.00;0.00;;;;;;;-145.06;100.00;54578.97;10406638;28;20112;-72
2024/02/08 02:26:32;;;;;;;0.07;0.07;;;;;;;-145.06;100.00;54589.09;10404779;28;20021;-72
2024/02/08 02:31:33;;;;;;;0.08;0.08;;;;;;;-145.06;100.00;54576.94;10404254;28;20803;-72
2024/02/08 02:36:33;;;;;;;0.00;0.00;;;;;;;-145.06;100.00;54570.88;10404750;28;20025;-72
2024/02/08 02:41:33;;;;;;;0.00;0.00;;;;;;;-145.06;100.00;54552.66;10405710;28;20021;-73
2024/02/08 02:46:37;;;;;;;0.00;0.00;;;;;;;-145.06;100.00;54581.00;10406939;28;20028;-72
2024/02/08 02:51:37;;;;;;;0.00;0.00;;;;;;;-145.06;100.00;54593.16;10403375;28;20107;-72
2024/02/08 02:56:38;;;;;;;0.00;0.00;;;;;;;-145.06;100.00;54560.75;10405369;28;20369;-72
2024/02/08 03:01:42;;;;;;;0.00;0.00;;;;;;;-145.06;100.00;54581.00;10404297;28;20025;-73
2024/02/08 03:06:45;;;;;;;0.00;0.00;;;;;;;-145.06;100.00;54560.75;10404750;28;20264;-72
2024/02/08 03:11:45;;;;;;;0.00;0.00;;;;;;;-145.06;100.00;54576.94;10404345;28;20021;-73
2024/02/08 03:16:46;;;;;;;0.00;0.00;;;;;;;-145.06;100.00;54583.03;10402884;28;20366;-73
2024/02/08 03:21:46;;;;;;;0.00;0.00;;;;;;;-145.06;100.00;54589.09;10404382;28;20021;-73
2024/02/08 03:26:49;;;;;;;0.00;0.00;;;;;;;-145.06;100.00;54570.88;10403727;28;20030;-72
2024/02/08 03:31:52;;;;;;;0.00;0.00;;;;;;;-145.06;100.00;54572.91;10403221;28;20033;-73
2024/02/08 03:36:52;;;;;;;0.00;0.00;;;;;;;-145.06;100.00;54564.78;10401473;28;20164;-73
2024/02/08 03:42:02;;;;;;;0.00;0.00;;;;;;;-145.06;100.00;54564.78;10409067;28;20029;-74
2024/02/08 03:47:07;;;;;;;0.00;0.00;;;;;;;-145.06;100.00;54570.88;10402211;28;20424;-73
2024/02/08 03:52:10;;;;;;;0.03;0.03;;;;;;;-145.06;100.00;54601.25;10403543;28;20052;-72
2024/02/08 03:57:11;;;;;;;0.00;0.00;;;;;;;-145.06;100.00;54552.66;10403748;28;20099;-73
2024/02/08 04:02:11;;;;;;;0.00;0.00;;;;;;;-145.06;100.00;54562.78;10408661;28;20029;-73
2024/02/08 04:07:19;;;;;;;0.00;0.00;;;;;;;-145.06;100.00;54548.59;10411689;28;20383;-73
2024/02/08 04:54:59;;;;;;;0.00;0.00;;;;;;;-145.06;100.00;54574.91;10407627;28;20022;-72
2024/02/08 05:00:01;;;;;;;0.00;0.00;;;;;;;-145.06;100.00;54560.75;10402949;28;20371;-72
2024/02/08 05:05:06;;;;;;;0.00;0.00;;;;;;;-145.06;100.00;54603.28;10385460;28;20128;-72
2024/02/08 05:10:08;;;;;;;;;;;;;;;-145.06;100.00;54542.50;10407173;28;20359;-73
2024/02/08 05:15:12;;;;;;;0.00;0.00;;;;;;;-145.06;100.00;54564.78;10406103;28;20362;-73
2024/02/08 05:20:13;;;;;;;0.00;0.00;;;;;;;-145.06;100.00;54593.16;10407395;28;20489;-73
2024/02/08 05:25:14;;;;;;;0.00;0.00;;;;;;;-145.06;100.00;54591.13;10407393;28;20102;-73
2024/02/08 05:30:14;;;;;;;0.00;0.00;;;;;;;-145.06;100.00;54576.94;10406980;28;20056;-73
2024/02/08 05:35:19;;;;;;;0.00;0.00;;;;;;;-145.06;100.00;54568.84;10405863;28;20036;-73
2024/02/08 05:40:20;;;;;;;0.00;0.00;;;;;;;-145.06;100.00;54568.84;10416996;28;20128;-73
2024/02/08 05:45:21;;;;;;;0.00;0.00;;;;;;;-145.06;100.00;54581.00;10406340;28;20018;-72
2024/02/08 05:50:24;;;;;;;0.00;0.00;;;;;;;-145.06;100.00;54540.50;10405333;28;20442;-73
2024/02/08 05:55:24;;;;;;;0.00;0.00;;;;;;;-145.06;100.00;54585.06;10406430;28;20112;-72
2024/02/08 06:00:45;;;;;;;0.00;0.00;;;;;;;-145.06;100.00;54532.38;10405763;28;20129;-72
2024/02/08 06:05:49;;;;;;;0.03;0.03;;;;;;;-145.06;100.00;54568.84;10401782;28;20030;-73
2024/02/08 06:10:52;;;;;;;0.00;0.00;;;;;;;-145.06;100.00;54568.84;10406091;28;20029;-73
2024/02/08 06:16:00;;;;;;;0.00;0.00;;;;;;;-145.06;100.00;54538.47;10406902;28;20041;-73
2024/02/08 06:21:12;;;;;;;0.00;0.00;;;;;;;-145.06;100.00;54550.63;10405356;28;20028;-73
2024/02/08 06:31:19;;;;;;;0.00;0.00;;;;;;;-145.06;100.00;54552.66;10404110;28;20044;-74
2024/02/08 06:36:22;;;;;;;0.00;0.00;;;;;;;-145.06;100.00;54560.75;10406621;28;20067;-74
2024/02/08 06:41:51;;;;;;;0.00;0.00;;;;;;;-145.06;100.00;54562.78;10402700;28;20405;-72
2024/02/08 06:46:56;;;;;;;0.00;0.00;;;;;;;-145.06;100.00;54589.09;10406248;28;20057;-73
2024/02/08 07:40:01;;;;;;;0.00;0.00;;;;;;;-145.06;100.00;54536.44;10411295;28;20387;-71
2024/02/08 07:45:04;;;;;;;0.10;0.10;;;;;;;-145.06;100.00;54552.66;10412485;28;20402;-71
2024/02/08 07:50:08;;;;;;;0.00;0.00;;;;;;;-145.06;100.00;54524.28;10412146;28;20479;-71
2024/02/08 07:55:14;;;;;;;0.08;0.08;;;;;;;-145.06;100.00;54538.47;10413297;28;20443;-72
2024/02/08 08:05:56;;;;;;;0.10;0.10;;;;;;;-145.06;100.00;54491.88;10411882;28;20496;-73
2024/02/08 08:11:05;;;;;;;0.00;0.00;;;;;;;-145.06;100.00;54499.97;10412520;28;20551;-72
2024/02/08 08:21:26;;;;;;;0.00;0.00;;;;;;;-145.06;100.00;54495.94;10410583;28;20104;-71
2024/02/08 08:26:39;;;;;;;0.00;0.00;;;;;;;-145.06;100.00;54542.50;10411702;28;20019;-72
2024/02/08 08:31:51;;;;;;;0.00;0.00;;;;;;;-145.06;100.00;54528.34;10409940;28;20079;-72
2024/02/08 08:37:02;;;;;;;0.00;0.00;;;;;;;-145.06;100.00;54504.03;10410214;28;20432;-72
2024/02/08 08:42:05;;;;;;;0.00;0.00;;;;;;;-145.06;100.00;54475.66;10410510;28;20021;-72
2024/02/08 08:47:05;;;;;;;0.10;0.10;;;;;;;-145.06;100.00;54504.03;10408607;28;20493;-72
2024/02/08 08:52:06;;;;;;;0.00;0.00;;;;;;;-145.06;100.00;54461.50;10410519;28;20032;-72
2024/02/08 08:57:12;;;;;;;0.00;0.00;;;;;;;-145.06;100.00;54465.53;10411089;28;20076;-71
2024/02/08 09:02:12;;;;;;;0.00;0.00;;;;;;;-145.06;100.00;54479.72;10410648;28;20101;-72
2024/02/08 09:07:13;;;;;;;0.00;0.00;;;;;;;-145.06;100.00;54451.38;10411419;28;20443;-71
2024/02/08 09:12:13;;;;;;;0.00;0.00;;;;;;;-145.06;100.00;54473.66;10409517;28;20301;-71
2024/02/08 09:17:25;;;;;;;0.00;0.00;;;;;;;-145.06;100.00;54512.13;10409206;28;20025;-72
2024/02/08 09:22:31;;;;;;;0.00;0.00;;;;;;;-145.06;100.00;54449.34;10408724;28;20036;-71
2024/02/08 09:27:34;;;;;;;0.00;0.00;;;;;;;-145.06;100.00;54483.78;10407972;28;20025;-72
2024/02/08 09:32:46;;;;;;;0.00;0.00;;;;;;;-145.06;100.00;54453.41;10406081;28;20091;-71
2024/02/08 09:37:47;;;;;;;0.00;0.00;;;;;;;-145.06;100.00;54439.22;10407538;28;20025;-71
2024/02/08 09:42:54;;;;;;;0.03;0.03;;;;;;;-145.06;100.00;54451.38;10422263;28;20387;-72
2024/02/08 09:48:00;;;;;;;0.00;0.00;;;;;;;-145.06;100.00;54418.97;10408998;28;20025;-72
2024/02/08 09:53:07;;;;;;;0.00;0.00;;;;;;;-145.06;100.00;54394.66;10407857;28;20399;-72
2024/02/08 09:58:10;;;;;;;0.00;0.00;;;;;;;-145.06;100.00;54402.75;10407873;28;20025;-71
2024/02/08 10:03:31;;;;;;;0.00;0.00;;;;;;;-145.06;100.00;54388.56;10413125;28;20022;-69
2024/02/08 10:08:32;;;;;;;0.00;0.00;;;;;;;-145.06;100.00;54398.72;10412322;28;20033;-68
2024/02/08 10:13:51;;;;;;;0.00;0.00;;;;;;;-145.06;100.00;54402.75;10430142;28;20033;-69
2024/02/08 10:19:03;;;;;;;0.00;0.00;;;;;;;-145.06;100.00;54370.34;10407577;28;20399;-71
2024/02/08 10:24:25;;;;;;;0.00;0.00;;;;;;;-145.06;100.00;54382.50;10405267;28;20099;-71
2024/02/08 10:29:25;;;;;;;0.00;0.00;;;;;;;-145.06;100.00;54348.06;10406411;28;20021;-71
2024/02/08 10:34:39;;;;;;;0.00;0.00;;;;;;;-145.06;100.00;54378.44;10406625;28;20348;-71
2024/02/08 10:39:57;;;;;;;0.00;0.00;;;;;;;-145.06;100.00;54372.38;10406145;28;20112;-71
2024/02/08 10:45:05;;;;;;;0.00;0.00;;;;;;;-145.06;100.00;54342.00;10406559;28;20018;-71
2024/02/08 10:50:27;;;;;;;0.10;0.10;;;;;;;-145.06;100.00;54394.66;10403461;28;20021;-70
2024/02/08 10:55:36;;;;;;;0.00;0.00;;;;;;;-145.06;100.00;54402.75;10400805;28;20048;-71
2024/02/08 11:06:00;;;;;;;0.00;0.00;;;;;;;-145.06;100.00;54348.06;10405543;28;20096;-71
2024/02/08 11:11:09;;;;;;;0.00;0.00;;;;;;;-145.06;100.00;54366.31;10402982;28;20029;-72
2024/02/08 11:16:22;;;;;;;0.00;0.00;;;;;;;-145.06;100.00;54348.06;10418490;28;20033;-72
2024/02/08 11:21:42;;;;;;;0.00;0.00;;;;;;;-145.06;100.00;54386.56;10402712;28;20049;-71
2024/02/08 11:26:54;;;;;;;0.00;0.00;;;;;;;-145.06;100.00;54366.31;10404365;28;20109;-71
2024/02/08 11:31:59;;;;;;;0.00;0.00;;;;;;;-145.06;100.00;54327.81;10401160;28;20448;-72
2024/02/08 11:37:15;;;;;;;0.00;0.00;;;;;;;-145.06;100.00;54362.25;10404692;28;20028;-71
2024/02/08 11:42:17;;;;;;;0.00;0.00;;;;;;;-145.06;100.00;54323.78;10404085;28;20113;-72
2024/02/08 11:47:18;;;;;;;0.00;0.00;;;;;;;-145.06;100.00;54350.09;10402583;28;20633;-71
2024/02/08 11:52:20;;;;;;;0.00;0.00;;;;;;;-145.06;100.00;54354.16;10404571;28;20107;-72
2024/02/08 11:57:21;;;;;;;0.00;0.00;;;;;;;-145.06;100.00;54366.31;10408668;28;20056;-73
2024/02/08 12:02:27;;;;;;;0.00;0.00;;;;;;;-145.06;100.00;54350.09;10418723;28;20037;-72
2024/02/08 12:07:27;;;;;;;0.00;0.00;;;;;;;-145.06;100.00;54356.19;10403962;28;20029;-73
2024/02/08 12:12:30;;;;;;;0.00;0.00;;;;;;;-145.06;100.00;54366.31;10413442;28;20096;-72
2024/02/08 12:17:31;;;;;;;0.00;0.00;;;;;;;-145.06;100.00;54352.13;10404623;28;20475;-72
2024/02/08 12:22:31;;;;;;;0.00;0.00;;;;;;;-145.06;100.00;54350.09;10430417;28;20101;-73
2024/02/08 12:27:32;;;;;;;0.00;0.00;;;;;;;-145.06;100.00;54342.00;10425373;28;20021;-72
2024/02/08 12:32:33;;;;;;;0.00;0.00;;;;;;;-145.06;100.00;54339.97;10421653;28;20685;-72
2024/02/08 12:37:33;;;;;;;0.00;0.00;;;;;;;-145.06;100.00;54380.47;10416393;28;20018;-72
2024/02/08 12:42:34;;;;;;;0.00;0.00;;;;;;;-145.06;100.00;54331.88;10421270;28;20045;-72
2024/02/08 12:47:34;;;;;;;0.00;0.00;;;;;;;-145.06;100.00;54333.91;10418381;28;20272;-72
2024/02/08 12:52:36;;;;;;;0.00;0.00;;;;;;;-145.06;100.00;54358.19;10413504;28;20025;-73
2024/02/08 12:57:36;;;;;;;0.00;0.00;;;;;;;-145.06;100.00;54368.31;10413696;28;20261;-71
2024/02/08 13:02:37;;;;;;;0.00;0.00;;;;;;;-145.06;100.00;54370.34;10410541;28;20013;-70
2024/02/08 13:07:37;;;;;;;0.00;0.00;;;;;;;-145.06;100.00;54356.19;10408059;28;20494;-70
2024/02/08 13:12:37;;;;;;;0.00;0.00;;;;;;;-145.06;100.00;54364.28;10410815;28;20032;-71
2024/02/08 13:17:38;;;;;;;0.00;0.00;;;;;;;-145.06;100.00;54396.69;10409440;28;20155;-70
2024/02/08 13:22:41;;;;;;;0.00;0.00;;;;;;;-145.06;100.00;54390.59;10410934;28;20021;-70
2024/02/08 13:27:44;;;;;;;0.00;0.00;;;;;;;-145.06;100.00;54370.34;10413285;28;20025;-71
2024/02/08 13:32:51;;;;;;;0.00;0.00;;;;;;;-145.06;100.00;54378.44;10410803;28;20064;-71
2024/02/08 13:37:56;;;;;;;0.00;0.00;;;;;;;-145.06;100.00;54374.41;10411186;28;20057;-71
2024/02/08 13:42:58;;;;;;;0.00;0.00;;;;;;;-145.06;100.00;54358.19;10406504;28;20497;-72
2024/02/08 13:48:00;;;;;;;0.00;0.00;;;;;;;-145.06;100.00;54400.72;10408877;28;20467;-68
2024/02/08 13:53:01;;;;;;;0.00;0.00;;;;;;;-145.06;100.00;54386.56;10409027;28;20395;-69
2024/02/08 13:58:06;;;;;;;0.00;0.00;;;;;;;-145.06;100.00;54380.47;10408804;28;20021;-70
2024/02/08 14:03:08;;;;;;;0.00;0.00;;;;;;;-145.06;100.00;54374.41;10408623;28;20077;-70
2024/02/08 14:08:16;;;;;;;0.00;0.00;;;;;;;-145.06;100.00;54370.34;10407849;28;20021;-69
2024/02/08 14:13:28;;;;;;;0.00;0.00;;;;;;;-145.06;100.00;54390.59;10407829;28;20497;-69
2024/02/08 14:18:32;;;;;;;0.00;0.00;;;;;;;-145.06;100.00;54378.44;10406004;28;20490;-70
2024/02/08 14:23:37;;;;;;;0.10;0.10;;;;;;;-145.06;100.00;54406.81;10406529;28;20016;-70
2024/02/08 14:28:42;;;;;;;0.00;0.00;;;;;;;-145.06;100.00;54374.41;10406164;28;20043;-71
2024/02/08 14:33:45;;;;;;;0.00;0.00;;;;;;;-145.06;100.00;54382.50;10407626;28;20313;-70
2024/02/08 14:38:46;;;;;;;0.00;0.00;;;;;;;-145.06;100.00;54400.72;10404717;28;20036;-70
2024/02/08 14:43:53;;;;;;;0.00;0.00;;;;;;;-145.06;100.00;54390.59;10402798;28;20108;-69
2024/02/08 14:48:53;;;;;;;0.00;0.00;;;;;;;-145.06;100.00;54368.31;10416335;28;20029;-70
2024/02/08 14:53:54;;;;;;;0.00;0.00;;;;;;;-145.06;100.00;54390.59;10404823;28;20021;-70
2024/02/08 14:59:09;;;;;;;0.00;0.00;;;;;;;-145.06;100.00;54390.59;10406668;28;20077;-70
2024/02/08 15:04:17;;;;;;;0.00;0.00;;;;;;;-145.06;100.00;54378.44;10404454;28;20099;-71
2024/02/08 15:14:35;;;;;;;0.00;0.00;;;;;;;-145.06;100.00;54388.56;10404262;28;20424;-70
2024/02/08 15:19:45;;;;;;;0.00;0.00;;;;;;;-145.06;100.00;54380.47;10405551;28;20033;-70
2024/02/08 15:24:47;;;;;;;0.00;0.00;;;;;;;-145.06;100.00;54408.84;10404252;28;20311;-70
2024/02/08 15:29:52;;;;;;;0.00;0.00;;;;;;;-145.06;100.00;54394.66;10405515;28;20021;-70
2024/02/08 15:44:54;;;;;;;0.00;0.00;;;;;;;-145.06;100.00;54388.56;10405911;28;20033;-69
2024/02/08 15:49:55;;;;;;;0.00;0.00;;;;;;;-145.06;100.00;54398.72;10402956;28;20025;-70
2024/02/08 15:54:57;;;;;;;0.00;0.00;;;;;;;-145.06;100.00;54410.84;10404933;28;20031;-72
2024/02/08 15:59:59;;;;;;;0.00;0.00;;;;;;;-145.06;100.00;54435.16;10412872;28;20032;-70
2024/02/08 16:05:13;;;;;;;0.00;0.00;;;;;;;-145.06;100.00;54443.28;10413363;28;20047;-70
2024/02/08 16:10:19;;;;;;;0.00;0.00;;;;;;;-145.06;100.00;54423.00;10411965;28;20029;-69
2024/02/08 16:15:20;;;;;;;0.00;0.00;;;;;;;-145.06;100.00;54457.44;10412328;28;20049;-69
2024/02/08 16:20:24;;;;;;;0.00;0.00;;;;;;;-145.06;100.00;54447.31;10412291;28;20338;-69
2024/02/08 16:25:47;;;;;;;0.00;0.00;;;;;;;-145.06;100.00;54471.63;10413364;28;20033;-70
2024/02/08 16:35:59;;;;;;;0.00;0.00;;;;;;;-145.06;100.00;54465.53;10407848;28;20021;-70
2024/02/08 16:41:04;;;;;;;0.00;0.00;;;;;;;-145.06;100.00;54463.53;10409932;28;20022;-69
2024/02/08 16:46:11;;;;;;;0.00;0.00;;;;;;;-145.06;99.80;54576.94;10410375;28;20029;-70
2024/02/08 16:51:16;;;;;;;0.00;0.00;;;;;;;-145.06;100.00;54560.75;10411235;28;20030;-70
2024/02/08 16:56:21;;;;;;;0.00;0.00;;;;;;;-145.06;100.00;54554.66;10411493;28;20080;-70
2024/02/08 17:01:22;;;;;;;0.00;0.00;;;;;;;-145.06;100.00;54483.78;10411502;28;20056;-70
2024/02/08 17:06:34;;;;;;;0.00;0.00;;;;;;;-145.06;100.00;54489.84;10411054;28;20076;-70
2024/02/08 17:11:40;;;;;;;0.00;0.00;;;;;;;-145.06;100.00;54485.81;10412457;28;20080;-72
2024/02/08 17:16:45;;;;;;;0.00;0.00;;;;;;;-145.06;100.00;54477.69;10411346;28;20064;-69
2024/02/08 17:27:02;;;;;;;0.00;0.00;;;;;;;-145.06;100.00;54467.56;10408402;28;20026;-70
2024/02/08 17:32:12;;;;;;;0.00;0.00;;;;;;;-145.06;100.00;54516.19;10407028;28;20029;-70
2024/02/08 17:37:17;;;;;;;0.00;0.00;;;;;;;-145.06;100.00;54520.22;10407580;28;20021;-70
2024/02/08 17:42:17;;;;;;;;;;;;;;;-145.06;100.00;54510.09;10409097;28;20036;-70
2024/02/08 17:47:20;;;;;;;0.00;0.00;;;;;;;-145.06;100.00;54510.09;10409155;28;20008;-69
2024/02/08 17:52:23;;;;;;;0.00;0.00;;;;;;;-145.06;100.00;54516.19;10407810;28;20364;-70
2024/02/08 17:57:23;;;;;;;0.00;0.00;;;;;;;-145.06;100.00;54508.09;10406806;28;20139;-70
2024/02/08 18:02:27;;;;;;;0.00;0.00;;;;;;;-145.06;100.00;54520.22;10408578;28;20043;-70
2024/02/08 18:07:29;;;;;;;0.00;0.00;;;;;;;-145.06;100.00;54514.16;10406714;28;20025;-70
2024/02/08 18:12:41;;;;;;;0.00;0.00;;;;;;;-145.06;100.00;54522.25;10407803;28;20025;-70
2024/02/08 18:17:45;;;;;;;0.00;0.00;;;;;;;-145.06;100.00;54518.22;10406784;28;20057;-69
2024/02/08 18:22:48;;;;;;;0.00;0.00;;;;;;;-145.06;100.00;54518.22;10406784;28;20057;-70
2024/02/08 18:27:48;;;;;;;0.00;0.00;;;;;;;-145.06;100.00;54508.09;10407284;28;20017;-69
2024/02/08 18:32:49;;;;;;;0.08;0.08;;;;;;;-145.06;100.00;54410.84;10407285;28;20041;-70
2024/02/08 18:37:52;;;;;;;0.00;0.00;;;;;;;-145.06;100.00;54447.31;10406901;28;20028;-70
2024/02/08 18:42:56;;;;;;;0.00;0.00;;;;;;;-145.06;100.00;54435.16;10405231;28;20064;-70
2024/02/08 18:47:57;;;;;;;0.00;0.00;;;;;;;-145.06;100.00;54425.03;10406862;28;20025;-69
2024/02/08 18:52:58;;;;;;;0.00;0.00;;;;;;;-145.06;100.00;54439.22;10407054;28;20454;-69
2024/02/08 18:58:01;;;;;;;0.00;0.00;;;;;;;-145.06;100.00;54410.84;10404175;28;20021;-69
2024/02/08 19:03:07;;;;;;;0.00;0.00;;;;;;;-145.06;100.00;54418.97;10406870;28;20471;-70
2024/02/08 19:08:13;;;;;;;0.00;0.00;;;;;;;-145.06;100.00;54406.81;10403550;28;20032;-69
2024/02/08 19:13:25;;;;;;;0.00;0.00;;;;;;;-145.06;100.00;54410.84;10407541;28;20036;-70
2024/02/08 19:18:26;;;;;;;0.00;0.00;;;;;;;-145.06;100.00;54392.63;10405687;28;20043;-69
2024/02/08 19:23:27;;;;;;;0.00;0.00;;;;;;;-145.06;100.00;54406.81;10406145;28;20013;-70
2024/02/08 19:28:28;;;;;;;0.00;0.00;;;;;;;-145.06;100.00;54408.84;10405146;28;20379;-71
2024/02/08 19:33:28;;;;;;;0.00;0.00;;;;;;;-145.06;100.00;54400.72;10413470;28;20018;-70
2024/02/08 19:38:32;;;;;;;0.00;0.00;;;;;;;-145.06;100.00;54408.84;10414011;28;20029;-70
2024/02/08 19:43:35;;;;;;;0.00;0.00;;;;;;;-145.06;100.00;54410.84;10414700;28;20390;-70
2024/02/08 19:48:35;;;;;;;0.00;0.00;;;;;;;-145.06;100.00;54388.56;10414418;28;20037;-70
2024/02/08 19:53:37;;;;;;;0.00;0.00;;;;;;;-145.06;100.00;54396.69;10411805;28;20364;-70
2024/02/08 19:58:38;;;;;;;0.00;0.00;;;;;;;-145.06;100.00;54402.75;10413153;28;20013;-70
2024/02/08 20:03:41;;;;;;;0.00;0.00;;;;;;;-145.06;100.00;54418.97;10412093;28;20013;-70
2024/02/08 20:08:44;;;;;;;0.00;0.00;;;;;;;-145.06;100.00;54400.72;10413738;28;20566;-70
2024/02/08 20:13:46;;;;;;;0.00;0.00;;;;;;;-145.06;100.00;54414.91;10412081;28;20148;-70
2024/02/08 20:18:46;;;;;;;0.00;0.00;;;;;;;-145.06;100.00;54398.72;10411958;28;20104;-69
2024/02/08 20:23:47;;;;;;;0.00;0.00;;;;;;;-145.06;100.00;54392.63;10412315;28;20029;-70
2024/02/08 20:28:47;;;;;;;0.00;0.00;;;;;;;-145.06;100.00;54388.56;10410292;28;20532;-69
2024/02/08 20:33:48;;;;;;;0.00;0.00;;;;;;;-145.06;100.00;54416.94;10412432;28;20053;-71
2024/02/08 20:38:53;;;;;;;0.00;0.00;;;;;;;-145.06;100.00;54400.72;10412038;28;20017;-71
2024/02/08 20:44:10;;;;;;;0.00;0.00;;;;;;;-145.06;100.00;54396.69;10410746;28;20040;-71
2024/02/08 20:49:13;;;;;;;0.00;0.00;;;;;;;-145.06;100.00;54372.38;10408811;28;20036;-71
2024/02/08 20:54:15;;;;;;;0.00;0.00;;;;;;;-145.06;100.00;54398.72;10420322;28;20127;-71
2024/02/08 20:59:17;;;;;;;0.00;0.00;;;;;;;-145.06;100.00;54406.81;10409009;28;20387;-71
2024/02/08 21:04:19;;;;;;;0.00;0.00;;;;;;;-145.06;100.00;54388.56;10408533;28;20017;-70
2024/02/08 21:09:21;;;;;;;0.00;0.00;;;;;;;-145.06;100.00;54390.59;10411673;28;20396;-71
2024/02/08 21:14:21;;;;;;;0.00;0.00;;;;;;;-145.06;100.00;54386.56;10411078;28;20235;-71
2024/02/08 21:19:22;;;;;;;0.00;0.00;;;;;;;-145.06;100.00;54396.69;10409938;28;20022;-71
2024/02/08 21:24:22;;;;;;;0.00;0.00;;;;;;;-145.06;100.00;54441.25;10410486;28;20426;-71
2024/02/08 21:29:25;;;;;;;0.00;0.00;;;;;;;-145.06;100.00;54398.72;10420668;28;20021;-71
2024/02/08 21:34:25;;;;;;;0.00;0.00;;;;;;;-145.06;100.00;54388.56;10410721;28;20025;-71
2024/02/08 21:39:31;;;;;;;0.00;0.00;;;;;;;-145.06;100.00;54431.13;10409562;28;20112;-71
2024/02/08 21:44:38;;;;;;;0.00;0.00;;;;;;;-145.06;100.00;54392.63;10412016;28;20025;-71
2024/02/08 21:49:39;;;;;;;0.00;0.00;;;;;;;-145.06;100.00;54421.00;10409262;28;20152;-71
2024/02/08 21:54:39;;;;;;;0.00;0.00;;;;;;;-145.06;100.00;54386.56;10407925;28;20117;-71
2024/02/08 21:59:39;;;;;;;0.00;0.00;;;;;;;-145.06;100.00;54439.22;10409390;28;20025;-71
2024/02/08 22:04:39;;;;;;;0.00;0.00;;;;;;;-145.06;100.00;54402.75;10409169;28;20104;-71
2024/02/08 22:09:44;;;;;;;0.00;0.00;;;;;;;-145.06;100.00;54406.81;10408827;28;20026;-71
2024/02/08 22:14:45;;;;;;;0.00;0.00;;;;;;;-145.06;100.00;54410.84;10408887;28;20517;-71
2024/02/08 22:19:46;;;;;;;0.00;0.00;;;;;;;-145.06;100.00;54362.25;10407707;28;20029;-72
2024/02/08 22:24:46;;;;;;;0.00;0.00;;;;;;;-145.06;100.00;54400.72;10407919;28;20109;-72
2024/02/08 22:29:46;;;;;;;0.00;0.00;;;;;;;-145.06;100.00;54402.75;10406264;28;20108;-70
2024/02/08 22:34:47;;;;;;;0.00;0.00;;;;;;;-145.06;100.00;54406.81;10407675;28;20041;-71
2024/02/08 22:39:47;;;;;;;0.00;0.00;;;;;;;-145.06;100.00;54396.69;10407919;28;20037;-71
2024/02/08 22:44:48;;;;;;;0.00;0.00;;;;;;;-145.06;100.00;54410.84;10407253;28;20302;-72
2024/02/08 22:49:49;;;;;;;0.00;0.00;;;;;;;-145.06;100.00;54362.25;10407005;28;20021;-71
2024/02/08 22:54:50;;;;;;;0.00;0.00;;;;;;;-145.06;100.00;54402.75;10406336;28;20493;-71
2024/02/08 22:59:51;;;;;;;0.00;0.00;;;;;;;-145.06;100.00;54392.63;10406524;28;20034;-70
2024/02/08 23:04:53;;;;;;;0.00;0.00;;;;;;;-145.06;100.00;54427.06;10406302;28;20390;-71
2024/02/08 23:09:53;;;;;;;0.00;0.00;;;;;;;-145.06;100.00;54435.16;10406079;28;20028;-71
2024/02/08 23:14:55;;;;;;;0.00;0.00;;;;;;;-145.06;100.00;54396.69;10406343;28;20438;-71
2024/02/08 23:19:59;;;;;;;0.00;0.00;;;;;;;-145.06;100.00;54429.09;10405682;28;20267;-71
2024/02/08 23:25:01;;;;;;;0.00;0.00;;;;;;;-145.06;100.00;54410.84;10404907;28;20021;-71
2024/02/08 23:30:09;;;;;;;0.00;0.00;;;;;;;-145.06;100.00;54431.13;10405392;28;20060;-71
2024/02/08 23:35:12;;;;;;;0.00;0.00;;;;;;;-145.06;100.00;54410.84;10404373;28;20018;-72
2024/02/08 23:40:14;;;;;;;0.00;0.00;;;;;;;-145.06;100.00;54412.88;10404169;28;20020;-71
2024/02/08 23:45:17;;;;;;;0.00;0.00;;;;;;;-145.06;100.00;54408.84;10403975;28;20374;-71
2024/02/08 23:50:18;;;;;;;0.00;0.00;;;;;;;-145.06;100.00;54421.00;10405511;28;20029;-70
2024/02/08 23:55:23;;;;;;;0.00;0.00;;;;;;;-145.06;100.00;54418.97;10405332;28;20026;-71
